createdAt,value
2024-02-29T00:01:26.679Z,95571.84
2024-02-29T00:03:56.190Z,95581.47
2024-02-29T00:06:24.373Z,95586.38
2024-02-29T00:08:52.533Z,95578.13
2024-02-29T00:11:21.198Z,95578.94
2024-02-29T00:13:49.479Z,95579.56
2024-02-29T00:16:18.557Z,95578.00
2024-02-29T00:18:47.359Z,95578.00
2024-02-29T00:21:16.907Z,95579.38
2024-02-29T00:23:45.738Z,95578.59
2024-02-29T00:26:16.300Z,95581.59
2024-02-29T00:28:44.425Z,95577.34
2024-02-29T00:31:12.580Z,95578.09
2024-02-29T00:33:41.908Z,95581.41
2024-02-29T00:36:10.710Z,95576.66
2024-02-29T00:38:40.740Z,95581.53
2024-02-29T00:41:09.360Z,95580.72
2024-02-29T00:43:37.516Z,95586.41
2024-02-29T00:46:06.556Z,95587.50
2024-02-29T00:48:34.773Z,95584.34
2024-02-29T00:51:03.205Z,95577.09
2024-02-29T00:53:31.368Z,95580.56
2024-02-29T00:56:00.879Z,95582.75
2024-02-29T00:58:28.926Z,95586.53
2024-02-29T01:00:57.185Z,95586.06
2024-02-29T01:03:25.450Z,95580.69
2024-02-29T01:05:53.615Z,95585.09
2024-02-29T01:08:21.781Z,95584.28
2024-02-29T01:10:50.150Z,95587.31
2024-02-29T01:13:19.834Z,95581.75
2024-02-29T01:15:49.020Z,95592.78
2024-02-29T01:18:17.336Z,95590.09
2024-02-29T01:20:45.413Z,95585.84
2024-02-29T01:23:13.779Z,95600.06
2024-02-29T01:25:41.918Z,95592.00
2024-02-29T01:28:10.265Z,95591.22
2024-02-29T01:30:39.822Z,95590.91
2024-02-29T01:33:08.289Z,95584.75
2024-02-29T01:35:36.378Z,95583.97
2024-02-29T01:38:04.527Z,95592.31
2024-02-29T01:40:32.933Z,95593.41
2024-02-29T01:43:01.397Z,95582.19
2024-02-29T01:45:29.668Z,95586.28
2024-02-29T01:47:59.217Z,95583.59
2024-02-29T01:50:30.557Z,95575.41
2024-02-29T01:52:58.712Z,95574.88
2024-02-29T01:55:27.010Z,95574.88
2024-02-29T01:57:55.203Z,95578.66
2024-02-29T02:00:25.846Z,95583.25
2024-02-29T02:02:54.762Z,95582.44
2024-02-29T02:05:23.320Z,95579.78
2024-02-29T02:07:51.792Z,95577.09
2024-02-29T02:10:20.014Z,95580.56
2024-02-29T02:12:49.397Z,95583.56
2024-02-29T02:15:17.812Z,95587.03
2024-02-29T02:17:47.156Z,95584.66
2024-02-29T02:20:19.215Z,95583.41
2024-02-29T02:22:47.493Z,95584.47
2024-02-29T02:25:15.711Z,95590.16
2024-02-29T02:27:43.987Z,95593.13
2024-02-29T02:30:12.977Z,95593.47
2024-02-29T02:32:41.423Z,95589.50
2024-02-29T02:35:10.336Z,95581.44
2024-02-29T02:37:41.326Z,95575.59
2024-02-29T02:40:11.870Z,95587.72
2024-02-29T02:42:40.223Z,95588.03
2024-02-29T02:45:09.788Z,95595.56
2024-02-29T02:47:37.910Z,95588.94
2024-02-29T02:50:06.883Z,95585.78
2024-02-29T02:52:34.987Z,95579.63
2024-02-29T02:55:05.807Z,95589.56
2024-02-29T02:57:34.032Z,95590.97
2024-02-29T03:00:02.363Z,95584.31
2024-02-29T03:02:30.443Z,95585.13
2024-02-29T03:04:58.837Z,95580.53
2024-02-29T03:07:27.133Z,95586.38
2024-02-29T03:09:55.274Z,95586.09
2024-02-29T03:12:24.870Z,95579.44
2024-02-29T03:14:53.006Z,95572.34
2024-02-29T03:17:21.162Z,95571.53
2024-02-29T03:19:49.349Z,95567.75
2024-02-29T03:22:17.472Z,95572.34
2024-02-29T03:24:47.106Z,95576.13
2024-02-29T03:27:15.683Z,95580.66
2024-02-29T03:29:45.454Z,95572.34
2024-02-29T03:32:13.721Z,95566.97
2024-02-29T03:34:41.857Z,95568.84
2024-02-29T03:37:10.800Z,95562.19
2024-02-29T03:39:39.629Z,95559.03
2024-02-29T03:42:07.860Z,95568.97
2024-02-29T03:44:35.933Z,95562.31
2024-02-29T03:47:05.530Z,95561.81
2024-02-29T03:49:33.663Z,95563.69
2024-02-29T03:52:03.437Z,95554.88
2024-02-29T03:54:31.654Z,95557.84
2024-02-29T03:56:59.810Z,95555.16
2024-02-29T03:59:27.880Z,95553.59
2024-02-29T04:01:56.751Z,95566.22
2024-02-29T04:04:26.299Z,95562.25
2024-02-29T04:06:54.489Z,95559.56
2024-02-29T04:09:22.679Z,95558.28
2024-02-29T04:11:51.050Z,95554.81
2024-02-29T04:14:19.214Z,95543.28
2024-02-29T04:16:47.372Z,95554.34
2024-02-29T04:19:15.575Z,95542.03
2024-02-29T04:21:46.493Z,95542.31
2024-02-29T04:24:14.744Z,95554.16
2024-02-29T04:26:42.861Z,95569.75
2024-02-29T04:29:11.190Z,95559.31
2024-02-29T04:31:39.357Z,95552.38
2024-02-29T04:34:07.600Z,95553.19
2024-02-29T04:36:35.704Z,95545.91
2024-02-29T04:39:05.401Z,95550.78
2024-02-29T04:41:33.480Z,95547.81
2024-02-29T04:44:01.646Z,95540.25
2024-02-29T04:46:30.167Z,95543.00
2024-02-29T04:48:58.267Z,95540.44
2024-02-29T04:51:26.382Z,95559.50
2024-02-29T04:53:54.653Z,95550.19
2024-02-29T04:56:24.182Z,95545.13
2024-02-29T04:58:52.335Z,95544.66
2024-02-29T05:01:20.558Z,95543.38
2024-02-29T05:06:34.865Z,95553.41
2024-02-29T05:09:03.065Z,95551.53
2024-02-29T05:11:32.543Z,95553.13
2024-02-29T05:14:00.752Z,95538.13
2024-02-29T05:16:28.855Z,95552.59
2024-02-29T05:18:57.053Z,95551.00
2024-02-29T05:21:25.269Z,95547.84
2024-02-29T05:23:53.464Z,95556.50
2024-02-29T05:26:21.627Z,95562.97
2024-02-29T05:28:51.132Z,95564.88
2024-02-29T05:31:20.069Z,95565.63
2024-02-29T05:33:48.437Z,95564.53
2024-02-29T05:36:16.897Z,95563.44
2024-02-29T05:38:51.059Z,95567.09
2024-02-29T05:41:19.929Z,95578.63
2024-02-29T05:43:49.059Z,95580.19
2024-02-29T05:46:18.890Z,95576.72
2024-02-29T05:48:47.098Z,95584.75
2024-02-29T05:51:15.309Z,95582.06
2024-02-29T05:53:43.472Z,95585.56
2024-02-29T05:56:11.529Z,95584.75
2024-02-29T05:58:39.641Z,95579.38
2024-02-29T06:01:08.149Z,95580.19
2024-02-29T06:03:38.840Z,95578.63
2024-02-29T06:06:07.361Z,95577.03
2024-02-29T06:08:35.568Z,95576.22
2024-02-29T06:11:03.690Z,95576.22
2024-02-29T06:13:33.041Z,95574.66
2024-02-29T06:16:04.438Z,95575.44
2024-02-29T06:18:32.709Z,95576.56
2024-02-29T06:21:04.063Z,95573.88
2024-02-29T06:23:32.188Z,95576.22
2024-02-29T06:26:00.271Z,95573.06
2024-02-29T06:28:29.849Z,95577.03
2024-02-29T06:30:58.149Z,95575.44
2024-02-29T06:33:26.659Z,95573.56
2024-02-29T06:35:55.005Z,95574.66
2024-02-29T06:38:24.492Z,95573.88
2024-02-29T06:40:52.694Z,95574.66
2024-02-29T06:43:20.884Z,95588.53
2024-02-29T06:45:50.516Z,95583.97
2024-02-29T06:48:19.649Z,95580.50
2024-02-29T06:50:48.217Z,95591.19
2024-02-29T06:53:16.349Z,95590.09
2024-02-29T06:55:45.791Z,95587.13
2024-02-29T06:58:14.141Z,95589.81
2024-02-29T07:00:42.566Z,95582.59
2024-02-29T07:03:10.910Z,95575.03
2024-02-29T07:05:39.129Z,95581.78
2024-02-29T07:08:07.714Z,95576.44
2024-02-29T07:10:35.837Z,95586.38
2024-02-29T07:13:05.815Z,95587.94
2024-02-29T07:15:35.090Z,95586.38
2024-02-29T07:18:03.332Z,95589.53
2024-02-29T07:20:31.504Z,95584.16
2024-02-29T07:23:02.618Z,95580.38
2024-02-29T07:25:30.792Z,95575.03
2024-02-29T07:27:59.759Z,95573.63
2024-02-29T07:30:30.391Z,95560.22
2024-02-29T07:32:59.221Z,95554.56
2024-02-29T07:35:27.478Z,95560.72
2024-02-29T07:37:55.834Z,95572.22
2024-02-29T07:40:24.107Z,95563.09
2024-02-29T07:42:52.263Z,95562.00
2024-02-29T07:45:21.319Z,95566.25
2024-02-29T07:47:51.712Z,95571.63
2024-02-29T07:50:20.760Z,95571.63
2024-02-29T07:52:49.558Z,95561.69
2024-02-29T07:55:18.288Z,95557.13
2024-02-29T07:57:47.845Z,95567.06
2024-02-29T08:00:16.781Z,95552.56
2024-02-29T08:02:47.569Z,95561.38
2024-02-29T08:05:17.563Z,95549.56
2024-02-29T08:07:47.903Z,95554.91
2024-02-29T08:10:18.094Z,95548.50
2024-02-29T08:12:46.566Z,95550.06
2024-02-29T08:15:15.109Z,95546.59
2024-02-29T08:17:43.458Z,95553.25
2024-02-29T08:20:13.019Z,95552.91
2024-02-29T08:22:42.592Z,95543.00
2024-02-29T08:25:11.287Z,95537.63
2024-02-29T08:27:39.581Z,95536.53
2024-02-29T08:30:07.950Z,95516.38
2024-02-29T08:32:36.095Z,95523.63
2024-02-29T08:35:04.807Z,95515.59
2024-02-29T08:37:32.992Z,95507.53
2024-02-29T08:40:05.974Z,95498.41
2024-02-29T08:42:35.911Z,95497.63
2024-02-29T08:45:05.350Z,95490.38
2024-02-29T08:47:33.483Z,95482.31
2024-02-29T08:50:01.633Z,95496.19
2024-02-29T08:52:32.194Z,95497.78
2024-02-29T08:55:00.665Z,95500.47
2024-02-29T08:57:30.340Z,95502.03
2024-02-29T08:59:58.488Z,95497.78
2024-02-29T09:02:26.671Z,95506.63
2024-02-29T09:04:54.806Z,95522.09
2024-02-29T09:07:23.050Z,95519.13
2024-02-29T09:09:52.458Z,95519.13
2024-02-29T09:12:20.841Z,95515.38
2024-02-29T09:14:50.331Z,95506.22
2024-02-29T09:17:18.516Z,95522.31
2024-02-29T09:19:46.614Z,95514.75
2024-02-29T09:22:14.852Z,95523.56
2024-02-29T09:24:43.073Z,95521.69
2024-02-29T09:27:11.749Z,95524.84
2024-02-29T09:29:39.873Z,95524.84
2024-02-29T09:32:09.411Z,95538.75
2024-02-29T09:34:41.796Z,95543.00
2024-02-29T09:37:13.261Z,95538.75
2024-02-29T09:39:41.416Z,95533.09
2024-02-29T09:42:14.019Z,95536.53
2024-02-29T09:44:44.313Z,95534.66
2024-02-29T09:47:15.651Z,95530.59
2024-02-29T09:49:48.892Z,95529.50
2024-02-29T09:52:17.836Z,95533.75
2024-02-29T09:54:47.334Z,95528.88
2024-02-29T09:57:15.916Z,95531.53
2024-02-29T09:59:44.843Z,95536.59
2024-02-29T10:02:17.618Z,95526.19
2024-02-29T10:04:47.500Z,95540.06
2024-02-29T10:07:16.292Z,95540.06
2024-02-29T10:09:45.306Z,95527.16
2024-02-29T10:12:17.891Z,95527.94
2024-02-29T10:14:46.952Z,95520.38
2024-02-29T10:17:16.512Z,95523.25
2024-02-29T10:19:44.688Z,95516.78
2024-02-29T10:22:12.972Z,95516.94
2024-02-29T10:24:42.858Z,95507.19
2024-02-29T10:27:11.616Z,95497.72
2024-02-29T10:29:39.928Z,95506.25
2024-02-29T10:32:08.132Z,95511.31
2024-02-29T10:34:38.576Z,95512.28
2024-02-29T10:37:07.282Z,95510.06
2024-02-29T10:39:39.576Z,95496.81
2024-02-29T10:42:10.209Z,95484.38
2024-02-29T10:44:41.869Z,95490.38
2024-02-29T10:47:11.438Z,95488.81
2024-02-29T10:49:48.812Z,95486.63
2024-02-29T10:52:23.383Z,95475.75
2024-02-29T10:54:58.155Z,95478.63
2024-02-29T10:57:29.481Z,95471.84
2024-02-29T11:00:02.149Z,95467.75
2024-02-29T11:02:30.847Z,95466.31
2024-02-29T11:05:00.928Z,95465.72
2024-02-29T11:07:29.943Z,95461.00
2024-02-29T11:09:58.238Z,95460.84
2024-02-29T11:12:30.569Z,95466.03
2024-02-29T11:15:00.609Z,95467.78
2024-02-29T11:17:30.512Z,95455.78
2024-02-29T11:20:04.400Z,95446.00
2024-02-29T11:22:34.625Z,95433.69
2024-02-29T11:25:10.652Z,95441.88
2024-02-29T11:27:39.479Z,95443.31
2024-02-29T11:30:11.596Z,95431.75
2024-02-29T11:32:39.734Z,95430.97
2024-02-29T11:35:10.018Z,95414.56
2024-02-29T11:37:41.617Z,95414.03
2024-02-29T11:40:17.052Z,95425.28
2024-02-29T11:42:45.478Z,95418.91
2024-02-29T11:45:24.165Z,95408.81
2024-02-29T11:47:52.533Z,95405.81
2024-02-29T11:50:22.188Z,95393.16
2024-02-29T11:52:50.623Z,95380.38
2024-02-29T11:55:20.683Z,95388.44
2024-02-29T11:57:49.078Z,95373.72
2024-02-29T12:00:17.410Z,95371.38
2024-02-29T12:02:46.826Z,95366.31
2024-02-29T12:05:16.685Z,95368.22
2024-02-29T12:07:48.200Z,95359.69
2024-02-29T12:10:17.447Z,95358.88
2024-02-29T12:12:45.760Z,95357.31
2024-02-29T12:15:14.619Z,95353.34
2024-02-29T12:17:44.469Z,95356.38
2024-02-29T12:20:18.158Z,95349.75
2024-02-29T12:22:50.141Z,95340.06
2024-02-29T12:25:18.988Z,95337.69
2024-02-29T12:27:47.946Z,95335.00
2024-02-29T12:30:16.221Z,95332.31
2024-02-29T12:32:45.260Z,95326.16
2024-02-29T12:35:14.750Z,95341.19
2024-02-29T12:37:44.439Z,95328.88
2024-02-29T12:40:15.505Z,95315.72
2024-02-29T12:42:44.014Z,95317.66
2024-02-29T12:45:15.283Z,95306.91
2024-02-29T12:47:45.428Z,95318.75
2024-02-29T12:50:13.638Z,95345.63
2024-02-29T12:52:41.716Z,95344.81
2024-02-29T12:55:10.735Z,95353.69
2024-02-29T12:57:40.295Z,95354.47
2024-02-29T13:00:12.616Z,95348.31
2024-02-29T13:02:40.991Z,95344.06
2024-02-29T13:05:10.236Z,95347.50
2024-02-29T13:07:38.545Z,95346.75
2024-02-29T13:10:07.711Z,95359.84
2024-02-29T13:12:36.068Z,95363.63
2024-02-29T13:15:06.562Z,95351.00
2024-02-29T13:17:35.066Z,95352.13
2024-02-29T13:20:03.497Z,95355.56
2024-02-29T13:22:31.574Z,95354.81
2024-02-29T13:24:59.782Z,95362.88
2024-02-29T13:27:28.010Z,95362.88
2024-02-29T13:29:56.889Z,95345.16
2024-02-29T13:32:26.865Z,95336.00
2024-02-29T13:34:54.938Z,95337.09
2024-02-29T13:37:23.128Z,95339.78
2024-02-29T13:39:51.368Z,95337.09
2024-02-29T13:42:19.608Z,95327.44
2024-02-29T13:44:49.003Z,95326.66
2024-02-29T13:47:17.599Z,95314.00
2024-02-29T13:49:47.128Z,95318.59
2024-02-29T13:52:18.684Z,95322.06
2024-02-29T13:54:48.281Z,95329.66
2024-02-29T13:57:17.139Z,95325.09
2024-02-29T13:59:45.322Z,95329.34
2024-02-29T14:02:14.022Z,95321.28
2024-02-29T14:04:42.378Z,95320.50
2024-02-29T14:07:13.347Z,95313.22
2024-02-29T14:09:41.529Z,95294.72
2024-02-29T14:12:09.658Z,95282.88
2024-02-29T14:14:37.798Z,95282.88
2024-02-29T14:17:06.061Z,95278.31
2024-02-29T14:19:35.592Z,95277.50
2024-02-29T14:22:04.029Z,95271.00
2024-02-29T14:24:33.561Z,95264.56
2024-02-29T14:27:01.862Z,95270.72
2024-02-29T14:29:29.958Z,95260.28
2024-02-29T14:31:58.070Z,95261.06
2024-02-29T14:34:26.316Z,95256.81
2024-02-29T14:36:55.034Z,95259.19
2024-02-29T14:39:23.415Z,95251.13
2024-02-29T14:41:54.141Z,95243.69
2024-02-29T14:44:23.667Z,95246.72
2024-02-29T14:46:54.986Z,95272.78
2024-02-29T14:49:23.401Z,95271.19
2024-02-29T14:51:51.569Z,95287.66
2024-02-29T14:54:20.073Z,95292.22
2024-02-29T14:56:48.372Z,95294.13
2024-02-29T14:59:17.889Z,95281.03
2024-02-29T15:01:46.210Z,95298.25
2024-02-29T15:04:14.483Z,95288.75
2024-02-29T15:06:42.762Z,95286.41
2024-02-29T15:09:10.882Z,95290.66
2024-02-29T15:11:39.087Z,95300.13
2024-02-29T15:14:07.309Z,95290.97
2024-02-29T15:16:37.236Z,95306.31
2024-02-29T15:19:05.483Z,95306.31
2024-02-29T15:21:34.176Z,95315.94
2024-02-29T15:24:05.721Z,95312.78
2024-02-29T15:26:36.107Z,95288.63
2024-02-29T15:29:04.307Z,95287.03
2024-02-29T15:31:32.511Z,95287.03
2024-02-29T15:34:02.184Z,95293.19
2024-02-29T15:36:30.386Z,95299.03
2024-02-29T15:38:58.531Z,95304.09
2024-02-29T15:41:26.667Z,95296.81
2024-02-29T15:43:54.780Z,95289.53
2024-02-29T15:46:23.417Z,95287.31
2024-02-29T15:48:51.727Z,95279.72
2024-02-29T15:51:21.288Z,95266.75
2024-02-29T15:53:49.385Z,95286.38
2024-02-29T15:56:17.602Z,95290.63
2024-02-29T15:58:45.938Z,95280.69
2024-02-29T16:01:14.118Z,95280.69
2024-02-29T16:03:42.283Z,95292.84
2024-02-29T16:06:10.925Z,95295.06
2024-02-29T16:08:40.431Z,95292.69
2024-02-29T16:11:08.835Z,95282.13
2024-02-29T16:13:37.337Z,95296.97
2024-02-29T16:16:05.887Z,95299.50
2024-02-29T16:18:34.180Z,95281.34
2024-02-29T16:21:03.788Z,95290.53
2024-02-29T16:23:31.953Z,95285.81
2024-02-29T16:26:01.495Z,95273.47
2024-02-29T16:28:30.002Z,95283.28
2024-02-29T16:30:58.878Z,95288.66
2024-02-29T16:33:27.073Z,95297.84
2024-02-29T16:35:55.265Z,95289.78
2024-02-29T16:38:23.368Z,95288.66
2024-02-29T16:40:55.507Z,95285.66
2024-02-29T16:43:25.576Z,95276.16
2024-02-29T16:45:53.874Z,95279.97
2024-02-29T16:48:22.124Z,95269.69
2024-02-29T16:50:50.354Z,95262.09
2024-02-29T16:53:18.497Z,95256.72
2024-02-29T16:55:46.577Z,95256.41
2024-02-29T16:58:14.994Z,95248.00
2024-02-29T17:00:44.841Z,95243.09
2024-02-29T17:03:13.058Z,95249.28
2024-02-29T17:05:41.241Z,95247.06
2024-02-29T17:08:10.162Z,95242.50
2024-02-29T17:10:38.356Z,95225.25
2024-02-29T17:13:06.505Z,95228.56
2024-02-29T17:15:37.341Z,95247.88
2024-02-29T17:18:07.955Z,95223.19
2024-02-29T17:20:36.162Z,95217.81
2024-02-29T17:23:05.667Z,95231.25
2024-02-29T17:25:34.996Z,95227.78
2024-02-29T17:28:03.171Z,95235.06
2024-02-29T17:30:31.301Z,95231.59
2024-02-29T17:32:59.641Z,95248.81
2024-02-29T17:35:30.404Z,95243.75
2024-02-29T17:37:59.937Z,95231.13
2024-02-29T17:40:28.754Z,95249.47
2024-02-29T17:42:57.930Z,95252.47
2024-02-29T17:45:26.164Z,95250.59
2024-02-29T17:47:54.484Z,95248.19
2024-02-29T17:50:22.621Z,95233.19
2024-02-29T17:52:52.230Z,95249.31
2024-02-29T17:55:20.449Z,95247.75
2024-02-29T17:57:48.682Z,95232.75
2024-02-29T18:00:17.932Z,95244.25
2024-02-29T18:02:46.147Z,95244.59
2024-02-29T18:05:15.673Z,95231.94
2024-02-29T18:07:50.928Z,95211.25
2024-02-29T18:10:25.431Z,95221.53
2024-02-29T18:12:53.662Z,95214.25
2024-02-29T18:15:22.071Z,95223.09
2024-02-29T18:17:50.369Z,95218.84
2024-02-29T18:20:19.216Z,95213.47
2024-02-29T18:22:47.397Z,95210.78
2024-02-29T18:25:18.661Z,95201.16
2024-02-29T18:27:48.548Z,95199.25
2024-02-29T18:30:16.989Z,95201.16
2024-02-29T18:32:45.223Z,95198.47
2024-02-29T18:35:13.432Z,95195.78
2024-02-29T18:37:41.628Z,95195.78
2024-02-29T18:40:12.275Z,95188.50
2024-02-29T18:42:40.651Z,95179.69
2024-02-29T18:45:11.213Z,95189.31
2024-02-29T18:47:39.500Z,95189.31
2024-02-29T18:50:08.569Z,95185.81
2024-02-29T18:52:37.003Z,95183.78
2024-02-29T18:55:08.398Z,95175.72
2024-02-29T18:57:36.648Z,95174.94
2024-02-29T19:00:05.655Z,95173.34
2024-02-29T19:02:35.127Z,95187.44
2024-02-29T19:05:03.293Z,95199.28
2024-02-29T19:07:31.602Z,95186.97
2024-02-29T19:09:59.848Z,95191.53
2024-02-29T19:12:29.074Z,95187.59
2024-02-29T19:14:58.203Z,95190.59
2024-02-29T19:17:26.418Z,95188.25
2024-02-29T19:19:56.517Z,95192.81
2024-02-29T19:22:24.720Z,95184.78
2024-02-29T19:24:52.879Z,95198.03
2024-02-29T19:27:22.963Z,95200.72
2024-02-29T19:29:53.185Z,95198.38
2024-02-29T19:32:21.570Z,95197.13
2024-02-29T19:34:50.292Z,95198.69
2024-02-29T19:37:19.948Z,95202.47
2024-02-29T19:39:49.533Z,95194.13
2024-02-29T19:42:18.150Z,95185.72
2024-02-29T19:44:46.206Z,95181.47
2024-02-29T19:47:14.553Z,95189.53
2024-02-29T19:49:42.680Z,95182.56
2024-02-29T19:52:10.992Z,95197.56
2024-02-29T19:54:40.600Z,95196.81
2024-02-29T19:57:08.719Z,95198.22
2024-02-29T19:59:36.820Z,95197.91
2024-02-29T20:02:05.628Z,95201.69
2024-02-29T20:04:33.904Z,95195.53
2024-02-29T20:07:02.336Z,95175.47
2024-02-29T20:09:30.603Z,95185.44
2024-02-29T20:12:00.114Z,95174.72
2024-02-29T20:14:28.758Z,95179.13
2024-02-29T20:16:56.864Z,95168.38
2024-02-29T20:19:25.038Z,95163.34
2024-02-29T20:21:53.494Z,95165.25
2024-02-29T20:24:21.595Z,95155.63
2024-02-29T20:26:49.723Z,95154.03
2024-02-29T20:29:19.199Z,95154.84
2024-02-29T20:31:47.390Z,95151.34
2024-02-29T20:34:15.607Z,95150.25
2024-02-29T20:36:44.961Z,95152.94
2024-02-29T20:39:15.517Z,95167.47
2024-02-29T20:41:43.816Z,95168.25
2024-02-29T20:44:11.930Z,95147.56
2024-02-29T20:46:41.430Z,95149.94
2024-02-29T20:49:09.841Z,95153.88
2024-02-29T20:51:38.006Z,95155.13
2024-02-29T20:54:06.238Z,95157.16
2024-02-29T20:56:34.390Z,95166.00
2024-02-29T20:59:03.134Z,95159.53
2024-02-29T21:01:31.361Z,95157.31
2024-02-29T21:04:00.945Z,95147.69
2024-02-29T21:06:29.369Z,95151.78
2024-02-29T21:08:57.457Z,95161.75
2024-02-29T21:11:25.630Z,95154.00
2024-02-29T21:13:55.373Z,95145.66
2024-02-29T21:16:24.054Z,95155.91
2024-02-29T21:18:52.299Z,95169.81
2024-02-29T21:21:21.854Z,95176.75
2024-02-29T21:23:50.437Z,95180.19
2024-02-29T21:26:19.141Z,95179.44
2024-02-29T21:28:49.532Z,95173.25
2024-02-29T21:31:17.882Z,95184.00
2024-02-29T21:33:46.054Z,95182.13
2024-02-29T21:36:15.213Z,95174.84
2024-02-29T21:38:46.099Z,95177.22
2024-02-29T21:41:14.228Z,95179.13
2024-02-29T21:43:42.992Z,95182.56
2024-02-29T21:46:13.272Z,95183.38
2024-02-29T21:48:41.452Z,95188.75
2024-02-29T21:51:09.863Z,95176.09
2024-02-29T21:53:37.943Z,95170.72
2024-02-29T21:56:12.870Z,95175.34
2024-02-29T21:58:41.120Z,95172.97
2024-02-29T22:01:09.538Z,95174.53
2024-02-29T22:03:37.705Z,95193.31
2024-02-29T22:06:06.335Z,95186.06
2024-02-29T22:08:34.573Z,95166.47
2024-02-29T22:11:03.109Z,95172.97
2024-02-29T22:13:32.675Z,95158.72
2024-02-29T22:16:00.902Z,95159.53
2024-02-29T22:18:29.184Z,95160.00
2024-02-29T22:20:57.302Z,95157.31
2024-02-29T22:23:25.466Z,95154.31
2024-02-29T22:25:55.557Z,95157.31
2024-02-29T22:28:23.740Z,95162.69
2024-02-29T22:30:53.282Z,95162.69
2024-02-29T22:33:21.490Z,95158.72
2024-02-29T22:35:50.017Z,95148.00
2024-02-29T22:38:18.137Z,95150.38
2024-02-29T22:40:46.282Z,95142.78
2024-02-29T22:43:14.509Z,95141.19
2024-02-29T22:45:43.274Z,95148.16
2024-02-29T22:48:12.890Z,95142.00
2024-02-29T22:50:41.027Z,95128.91
2024-02-29T22:53:09.137Z,95125.09
2024-02-29T22:55:38.046Z,95114.34
2024-02-29T22:58:06.240Z,95112.13
2024-02-29T23:00:35.037Z,95100.63
2024-02-29T23:03:03.306Z,95106.00
2024-02-29T23:05:32.784Z,95093.03
2024-02-29T23:08:00.922Z,95100.63
2024-02-29T23:10:29.245Z,95099.50
2024-02-29T23:12:57.383Z,95097.94
2024-02-29T23:15:25.649Z,95094.47
2024-02-29T23:17:56.189Z,95089.09
2024-02-29T23:20:24.917Z,95085.94
2024-02-29T23:22:54.635Z,95085.94
2024-02-29T23:25:25.194Z,95080.56
2024-02-29T23:27:53.931Z,95073.63
2024-02-29T23:30:22.289Z,95075.22
2024-02-29T23:32:50.618Z,95071.75
2024-02-29T23:35:18.797Z,95061.78
2024-02-29T23:37:46.974Z,95060.69
2024-02-29T23:40:16.776Z,95066.03
2024-02-29T23:42:46.110Z,95061.31
2024-02-29T23:45:14.227Z,95057.38
2024-02-29T23:47:42.401Z,95057.06
2024-02-29T23:50:10.947Z,95056.59
2024-02-29T23:52:39.599Z,95048.88
2024-02-29T23:55:08.526Z,95055.81
2024-02-29T23:57:38.021Z,95043.50
